Thompsons Station, Tennessee
Current Conditions -  °F | °C
As of 4:35 AM on Thursday 27 Nov 2014 (Local Time) from KMRC Reporting Station
Overcast Overcast  
Wind Chill: 33°   Ceiling: 2400
Heat Index: 39°   Visibility: 10mi
Dew Point: 37°   Wind: 9mph
Humidity: 93%   Direction: 290°WNW
Pressure: 30.21"   Gusts: NA
Location:  35.8°N, 86.91°W
Report Text: KMRC 271035Z AUTO 29008KT 10SM OVC024 04/03 A3021 RMK
Loading
Personal Weather Stations






























Interactive Weather Map New forecast layout! Learn more

10-Day Weather Forecast

Advertisements
Track Severe Weather on mobile